Terminal Aerodrome Forecast
Issued by NWS Shreveport, LA

Home | Current Version | Previous Version | Text Only | Print | Product List | Glossary On
Versions: 1 2 3 4 5 6 7 8 9 10 11 12 13 14 15 16 17 18 19 20 21
000
FTUS44 KSHV 221738
TAFMLU
TAF
KMLU 221738Z 2218/2318 07007KT P6SM SCT250
     FM230000 04004KT P6SM SCT040
      TEMPO 2310/2313 BKN015
     FM231300 13006KT P6SM OVC015
     FM231600 16008KT P6SM SCT035=

USA.gov is the U.S. government's official web portal to all federal, state and local government web resources and services.